createdAt,value
2023-05-17T00:00:01.101Z,99.90
2023-05-17T00:02:29.097Z,99.90
2023-05-17T00:04:57.231Z,99.90
2023-05-17T00:07:25.425Z,99.90
2023-05-17T00:09:53.516Z,99.90
2023-05-17T00:12:21.508Z,99.90
2023-05-17T00:14:51.146Z,99.90
2023-05-17T00:17:19.130Z,99.90
2023-05-17T00:19:47.239Z,99.90
2023-05-17T00:22:15.343Z,99.90
2023-05-17T00:24:43.355Z,99.90
2023-05-17T00:27:11.423Z,99.90
2023-05-17T00:29:39.403Z,99.90
2023-05-17T00:32:09.077Z,99.90
2023-05-17T00:34:37.149Z,99.90
2023-05-17T00:37:05.914Z,99.90
2023-05-17T00:39:34.015Z,99.90
2023-05-17T00:42:02.738Z,99.90
2023-05-17T00:44:30.900Z,99.90
2023-05-17T00:46:59.863Z,99.90
2023-05-17T00:49:29.785Z,99.90
2023-05-17T00:51:57.928Z,99.90
2023-05-17T00:54:27.410Z,99.90
2023-05-17T00:56:57.198Z,99.90
2023-05-17T00:59:27.101Z,99.90
2023-05-17T01:01:55.740Z,99.90
2023-05-17T01:04:23.877Z,99.90
2023-05-17T01:06:53.312Z,99.90
2023-05-17T01:09:21.430Z,99.90
2023-05-17T01:11:58.024Z,99.90
2023-05-17T01:14:36.383Z,99.90
2023-05-17T01:17:08.231Z,99.90
2023-05-17T01:19:54.478Z,99.90
2023-05-17T01:22:33.900Z,99.90
2023-05-17T01:25:12.162Z,99.90
2023-05-17T01:27:44.183Z,99.90
2023-05-17T01:30:14.872Z,99.90
2023-05-17T01:32:43.864Z,99.90
2023-05-17T01:35:13.085Z,99.90
2023-05-17T01:37:41.417Z,99.90
2023-05-17T01:40:11.403Z,99.90
2023-05-17T01:42:43.651Z,99.90
2023-05-17T01:45:19.347Z,99.90
2023-05-17T01:48:01.743Z,99.90
2023-05-17T01:50:31.928Z,99.90
2023-05-17T01:53:06.012Z,99.90
2023-05-17T01:55:44.242Z,99.90
2023-05-17T01:58:14.758Z,99.90
2023-05-17T02:00:46.050Z,99.90
2023-05-17T02:03:15.087Z,99.90
2023-05-17T02:05:43.065Z,99.90
2023-05-17T02:08:11.142Z,99.90
2023-05-17T02:10:39.204Z,99.90
2023-05-17T02:13:07.241Z,99.90
2023-05-17T02:15:36.629Z,99.90
2023-05-17T02:18:04.808Z,99.90
2023-05-17T02:20:32.851Z,99.90
2023-05-17T02:23:00.870Z,99.90
2023-05-17T02:25:29.211Z,99.90
2023-05-17T02:27:57.396Z,99.90
2023-05-17T02:30:25.593Z,99.90
2023-05-17T02:32:57.862Z,99.90
2023-05-17T02:35:26.062Z,99.90
2023-05-17T02:37:54.078Z,99.90
2023-05-17T02:40:22.126Z,99.90
2023-05-17T02:42:50.128Z,99.90
2023-05-17T02:45:18.325Z,99.90
2023-05-17T02:47:46.382Z,99.90
2023-05-17T02:50:15.850Z,99.90
2023-05-17T02:52:43.876Z,99.90
2023-05-17T02:55:11.909Z,99.90
2023-05-17T02:57:40.149Z,99.90
2023-05-17T03:00:10.165Z,99.90
2023-05-17T03:02:38.300Z,99.90
2023-05-17T03:05:07.087Z,99.90
2023-05-17T03:07:36.861Z,99.90
2023-05-17T03:10:05.196Z,99.90
2023-05-17T03:12:33.227Z,99.90
2023-05-17T03:15:01.249Z,99.90
2023-05-17T03:17:29.397Z,99.90
2023-05-17T03:19:57.731Z,99.90
2023-05-17T03:22:25.765Z,99.90
2023-05-17T03:24:55.220Z,99.90
2023-05-17T03:27:23.348Z,99.90
2023-05-17T03:29:51.381Z,99.90
2023-05-17T03:32:19.408Z,99.90
2023-05-17T03:34:47.435Z,99.90
2023-05-17T03:37:15.464Z,99.90
2023-05-17T03:39:43.457Z,99.90
2023-05-17T03:42:12.788Z,99.90
2023-05-17T03:44:41.621Z,99.90
2023-05-17T03:47:09.606Z,99.90
2023-05-17T03:49:37.722Z,99.90
2023-05-17T03:52:06.039Z,99.90
2023-05-17T03:54:34.075Z,99.90
2023-05-17T03:57:03.632Z,99.90
2023-05-17T03:59:33.062Z,99.90
2023-05-17T04:02:01.287Z,99.90
2023-05-17T04:04:29.750Z,99.90
2023-05-17T04:06:57.907Z,99.90
2023-05-17T04:09:25.976Z,99.90
2023-05-17T04:11:54.029Z,99.90
2023-05-17T04:14:22.435Z,99.90
2023-05-17T04:16:51.819Z,99.90
2023-05-17T04:19:19.951Z,99.90
2023-05-17T04:21:48.019Z,99.90
2023-05-17T04:24:16.016Z,99.90
2023-05-17T04:26:44.423Z,99.90
2023-05-17T04:29:12.512Z,99.90
2023-05-17T04:31:40.664Z,99.90
2023-05-17T04:34:10.194Z,99.90
2023-05-17T04:36:38.205Z,99.90
2023-05-17T04:39:07.207Z,99.90
2023-05-17T04:41:35.633Z,99.90
2023-05-17T04:44:04.073Z,99.90
2023-05-17T04:46:32.114Z,99.90
2023-05-17T04:49:00.268Z,99.90
2023-05-17T04:51:30.610Z,99.90
2023-05-17T04:54:00.939Z,99.90
2023-05-17T04:56:29.282Z,99.90
2023-05-17T04:58:57.280Z,99.90
2023-05-17T05:01:25.335Z,99.90
2023-05-17T05:03:53.421Z,99.90
2023-05-17T05:06:22.281Z,99.90
2023-05-17T05:08:51.682Z,99.90
2023-05-17T05:11:19.669Z,99.90
2023-05-17T05:13:47.780Z,99.90
2023-05-17T05:16:16.151Z,99.90
2023-05-17T05:18:44.263Z,99.90
2023-05-17T05:21:12.692Z,99.90
2023-05-17T05:23:40.671Z,99.90
2023-05-17T05:26:10.003Z,99.90
2023-05-17T05:28:38.311Z,99.90
2023-05-17T05:31:06.514Z,99.90
2023-05-17T05:33:34.716Z,99.90
2023-05-17T05:36:02.928Z,99.90
2023-05-17T05:38:30.988Z,99.90
2023-05-17T05:40:59.046Z,99.90
2023-05-17T05:43:28.395Z,99.90
2023-05-17T05:45:56.426Z,99.90
2023-05-17T05:48:24.575Z,99.90
2023-05-17T05:50:52.866Z,99.90
2023-05-17T05:53:20.894Z,99.90
2023-05-17T05:55:49.430Z,99.90
2023-05-17T05:58:17.579Z,99.90
2023-05-17T06:00:46.997Z,99.90
2023-05-17T06:03:15.637Z,99.90
2023-05-17T06:05:43.905Z,99.90
2023-05-17T06:08:12.032Z,99.90
2023-05-17T06:10:40.057Z,99.90
2023-05-17T06:13:08.062Z,99.90
2023-05-17T06:15:37.148Z,99.90
2023-05-17T06:18:06.866Z,99.90
2023-05-17T06:20:34.943Z,99.90
2023-05-17T06:23:05.047Z,99.90
2023-05-17T06:25:33.304Z,99.90
2023-05-17T06:28:02.743Z,99.90
2023-05-17T06:30:31.298Z,99.90
2023-05-17T06:32:59.841Z,99.90
2023-05-17T06:35:33.027Z,99.90
2023-05-17T06:38:05.937Z,99.90
2023-05-17T06:40:34.160Z,99.90
2023-05-17T06:43:02.632Z,99.90
2023-05-17T06:45:30.628Z,99.90
2023-05-17T06:47:58.830Z,99.90
2023-05-17T06:50:28.474Z,99.90
2023-05-17T06:52:58.184Z,99.90
2023-05-17T06:55:26.233Z,99.90
2023-05-17T06:57:57.020Z,99.90
2023-05-17T07:00:26.173Z,99.90
2023-05-17T07:02:54.325Z,99.90
2023-05-17T07:05:24.213Z,99.90
2023-05-17T07:07:52.439Z,99.90
2023-05-17T07:10:22.178Z,99.90
2023-05-17T07:12:50.196Z,99.90
2023-05-17T07:15:18.360Z,99.90
2023-05-17T07:17:46.388Z,99.90
2023-05-17T07:20:14.733Z,99.90
2023-05-17T07:22:42.880Z,99.90
2023-05-17T07:25:11.716Z,99.90
2023-05-17T07:27:41.171Z,99.90
2023-05-17T07:30:10.294Z,99.90
2023-05-17T07:32:38.321Z,99.90
2023-05-17T07:35:06.857Z,99.90
2023-05-17T07:37:35.158Z,99.90
2023-05-17T07:40:05.154Z,99.90
2023-05-17T07:42:34.166Z,99.90
2023-05-17T07:45:03.553Z,99.90
2023-05-17T07:47:32.081Z,99.90
2023-05-17T07:50:00.168Z,99.90
2023-05-17T07:52:28.345Z,99.90
2023-05-17T07:54:56.436Z,99.90
2023-05-17T07:57:24.795Z,99.90
2023-05-17T07:59:52.780Z,99.90
2023-05-17T08:02:22.247Z,99.90
2023-05-17T08:04:50.359Z,99.90
2023-05-17T08:07:18.425Z,99.90
2023-05-17T08:09:49.319Z,99.90
2023-05-17T08:12:17.350Z,99.20
2023-05-17T08:14:45.572Z,99.80
2023-05-17T08:17:13.585Z,99.70
2023-05-17T08:19:43.082Z,99.40
2023-05-17T08:22:11.544Z,98.90
2023-05-17T08:24:40.856Z,99.30
2023-05-17T08:27:10.076Z,99.20
2023-05-17T08:29:39.619Z,98.80
2023-05-17T08:32:08.722Z,98.90
2023-05-17T08:34:36.788Z,98.90
2023-05-17T08:37:06.439Z,98.40
2023-05-17T08:39:34.518Z,98.50
2023-05-17T08:42:03.171Z,98.60
2023-05-17T08:44:31.236Z,98.80
2023-05-17T08:47:02.640Z,98.00
2023-05-17T08:49:33.481Z,98.30
2023-05-17T08:52:03.309Z,98.20
2023-05-17T08:54:32.785Z,97.80
2023-05-17T08:57:04.533Z,98.50
2023-05-17T08:59:33.944Z,98.20
2023-05-17T09:02:02.770Z,98.80
2023-05-17T09:04:31.488Z,98.20
2023-05-17T09:06:59.579Z,98.30
2023-05-17T09:09:28.299Z,97.80
2023-05-17T09:11:58.269Z,97.60
2023-05-17T09:14:26.404Z,97.20
2023-05-17T09:16:58.481Z,97.30
2023-05-17T09:19:26.861Z,97.70
2023-05-17T09:21:55.797Z,97.40
2023-05-17T09:24:30.155Z,97.70
2023-05-17T09:27:04.292Z,97.40
2023-05-17T09:29:33.407Z,97.80
2023-05-17T09:32:14.577Z,97.70
2023-05-17T09:34:43.456Z,97.70
2023-05-17T09:37:15.994Z,97.20
2023-05-17T09:39:46.049Z,97.70
2023-05-17T09:42:16.715Z,97.60
2023-05-17T09:44:49.568Z,97.00
2023-05-17T09:47:25.461Z,96.90
2023-05-17T09:49:53.718Z,97.40
2023-05-17T09:52:22.304Z,97.90
2023-05-17T09:54:54.771Z,97.20
2023-05-17T09:57:25.982Z,97.20
2023-05-17T09:59:57.293Z,96.90
2023-05-17T10:02:29.738Z,97.00
2023-05-17T10:04:59.273Z,97.30
2023-05-17T10:07:29.239Z,97.40
2023-05-17T10:09:58.400Z,96.90
2023-05-17T10:12:30.563Z,97.20
2023-05-17T10:14:59.982Z,96.30
2023-05-17T10:17:29.691Z,96.50
2023-05-17T10:19:58.222Z,96.90
2023-05-17T10:22:29.023Z,97.30
2023-05-17T10:24:58.494Z,97.00
2023-05-17T10:27:29.428Z,96.80
2023-05-17T10:29:58.815Z,97.20
2023-05-17T10:32:29.857Z,96.70
2023-05-17T10:35:10.566Z,96.90
2023-05-17T10:37:41.754Z,96.80
2023-05-17T10:40:13.699Z,97.00
2023-05-17T10:42:47.602Z,96.80
2023-05-17T10:45:15.818Z,96.60
2023-05-17T10:47:46.086Z,96.30
2023-05-17T10:50:15.190Z,95.70
2023-05-17T10:52:49.295Z,95.70
2023-05-17T10:55:20.638Z,95.80
2023-05-17T10:58:15.895Z,96.10
2023-05-17T11:00:47.129Z,96.00
2023-05-17T11:03:17.854Z,95.90
2023-05-17T11:06:12.648Z,95.70
2023-05-17T11:08:48.104Z,96.30
2023-05-17T11:11:19.505Z,96.30
2023-05-17T11:13:56.177Z,96.10
2023-05-17T11:16:28.640Z,95.80
2023-05-17T11:19:08.474Z,96.40
2023-05-17T11:21:36.901Z,96.20
2023-05-17T11:24:05.719Z,96.10
2023-05-17T11:26:37.634Z,95.90
2023-05-17T11:29:10.379Z,96.20
2023-05-17T11:31:44.844Z,96.10
2023-05-17T11:34:13.213Z,95.70
2023-05-17T11:36:52.366Z,95.90
2023-05-17T11:39:22.102Z,95.70
2023-05-17T11:41:51.320Z,95.90
2023-05-17T11:44:26.990Z,96.00
2023-05-17T11:47:03.416Z,96.40
2023-05-17T11:49:36.464Z,96.80
2023-05-17T11:52:06.116Z,97.20
2023-05-17T11:54:35.233Z,97.20
2023-05-17T11:57:04.668Z,96.90
2023-05-17T11:59:40.459Z,96.40
2023-05-17T12:02:08.673Z,96.10
2023-05-17T12:04:38.595Z,96.30
2023-05-17T12:07:09.979Z,96.30
2023-05-17T12:09:40.976Z,96.00
2023-05-17T12:12:09.693Z,95.60
2023-05-17T12:14:39.297Z,95.90
2023-05-17T12:17:10.280Z,96.10
2023-05-17T12:19:38.587Z,95.80
2023-05-17T12:22:08.404Z,95.80
2023-05-17T12:24:40.157Z,95.80
2023-05-17T12:27:08.772Z,96.00
2023-05-17T12:29:36.859Z,96.00
2023-05-17T12:32:08.872Z,95.70
2023-05-17T12:34:37.305Z,95.80
2023-05-17T12:37:10.124Z,95.50
2023-05-17T12:39:38.339Z,95.60
2023-05-17T12:42:07.045Z,95.40
2023-05-17T12:44:35.233Z,95.10
2023-05-17T12:47:03.984Z,95.30
2023-05-17T12:49:39.138Z,95.70
2023-05-17T12:52:07.711Z,95.50
2023-05-17T12:54:35.794Z,95.40
2023-05-17T12:57:15.727Z,95.60
2023-05-17T12:59:51.424Z,95.70
2023-05-17T13:02:21.050Z,95.50
2023-05-17T13:04:50.849Z,95.80
2023-05-17T13:07:23.841Z,95.50
2023-05-17T13:09:52.195Z,95.30
2023-05-17T13:12:22.922Z,95.00
2023-05-17T13:14:54.708Z,95.10
2023-05-17T13:17:26.917Z,95.40
2023-05-17T13:19:57.413Z,95.10
2023-05-17T13:22:26.329Z,95.10
2023-05-17T13:24:55.022Z,95.30
2023-05-17T13:27:23.149Z,95.30
2023-05-17T13:29:51.325Z,94.80
2023-05-17T13:32:19.595Z,94.70
2023-05-17T13:34:47.937Z,94.80
2023-05-17T13:37:17.299Z,95.00
2023-05-17T13:39:45.509Z,94.50
2023-05-17T13:42:14.473Z,94.50
2023-05-17T13:44:42.523Z,94.80
2023-05-17T13:47:10.644Z,94.50
2023-05-17T13:49:38.967Z,94.70
2023-05-17T13:52:09.456Z,94.90
2023-05-17T13:54:39.197Z,94.90
2023-05-17T13:57:07.757Z,94.90
2023-05-17T13:59:36.158Z,94.90
2023-05-17T14:02:04.755Z,95.20
2023-05-17T14:04:33.068Z,95.10
2023-05-17T14:07:01.880Z,95.10
2023-05-17T14:09:32.912Z,95.20
2023-05-17T14:12:03.432Z,95.20
2023-05-17T14:14:31.987Z,96.20
2023-05-17T14:17:01.407Z,96.20
2023-05-17T14:19:29.783Z,96.40
2023-05-17T14:21:57.965Z,96.80
2023-05-17T14:24:26.182Z,96.30
2023-05-17T14:26:54.207Z,96.30
2023-05-17T14:29:23.986Z,96.20
2023-05-17T14:31:52.064Z,96.60
2023-05-17T14:34:20.458Z,96.70
2023-05-17T14:36:48.559Z,96.90
2023-05-17T14:39:17.516Z,97.30
2023-05-17T14:41:45.593Z,97.10
2023-05-17T14:44:13.718Z,97.30
2023-05-17T14:46:43.297Z,97.30
2023-05-17T14:49:11.485Z,97.60
2023-05-17T14:51:39.570Z,98.50
2023-05-17T14:54:07.939Z,97.70
2023-05-17T14:56:36.093Z,97.60
2023-05-17T14:59:04.392Z,97.60
2023-05-17T15:01:32.954Z,97.80
2023-05-17T15:04:02.425Z,97.80
2023-05-17T15:06:31.256Z,97.90
2023-05-17T15:08:59.949Z,98.00
2023-05-17T15:11:28.095Z,98.10
2023-05-17T15:13:56.555Z,98.40
2023-05-17T15:16:24.651Z,98.30
2023-05-17T15:18:54.759Z,98.20
2023-05-17T15:21:25.488Z,97.80
2023-05-17T15:23:53.506Z,98.30
2023-05-17T15:26:21.573Z,98.40
2023-05-17T15:28:51.137Z,98.50
2023-05-17T15:31:19.238Z,98.40
2023-05-17T15:33:52.794Z,98.70
2023-05-17T15:36:21.070Z,98.70
2023-05-17T15:38:50.680Z,98.60
2023-05-17T15:41:21.642Z,98.50
2023-05-17T15:43:49.647Z,98.10
2023-05-17T15:46:18.066Z,98.00
2023-05-17T15:48:46.431Z,98.20
2023-05-17T15:51:14.554Z,98.20
2023-05-17T15:53:42.583Z,98.20
2023-05-17T15:56:11.996Z,98.00
2023-05-17T15:58:40.044Z,97.70
2023-05-17T16:01:08.152Z,98.20
2023-05-17T16:03:36.496Z,98.20
2023-05-17T16:06:05.298Z,97.90
2023-05-17T16:08:33.607Z,98.00
2023-05-17T16:11:02.654Z,98.20
2023-05-17T16:13:32.272Z,98.80
2023-05-17T16:16:00.476Z,98.90
2023-05-17T16:18:29.999Z,98.90
2023-05-17T16:20:59.350Z,99.20
2023-05-17T16:23:27.789Z,99.20
2023-05-17T16:25:56.165Z,99.30
2023-05-17T16:28:24.345Z,99.00
2023-05-17T16:30:54.343Z,98.90
2023-05-17T16:33:22.709Z,99.50
2023-05-17T16:35:51.400Z,99.10
2023-05-17T16:38:19.456Z,99.10
2023-05-17T16:40:47.596Z,99.40
2023-05-17T16:43:16.142Z,99.20
2023-05-17T16:45:45.313Z,99.50
2023-05-17T16:48:15.677Z,99.60
2023-05-17T16:50:43.945Z,99.70
2023-05-17T16:53:12.399Z,99.80
2023-05-17T16:55:40.452Z,99.90
2023-05-17T16:58:08.780Z,99.90
2023-05-17T17:00:37.166Z,99.90
2023-05-17T17:03:09.031Z,99.90
2023-05-17T17:05:39.081Z,99.90
2023-05-17T17:08:07.364Z,99.90
2023-05-17T17:10:35.974Z,99.90
2023-05-17T17:13:04.900Z,99.90
2023-05-17T17:15:35.023Z,99.90
2023-05-17T17:18:03.220Z,99.90
2023-05-17T17:20:31.575Z,99.90
2023-05-17T17:23:01.224Z,99.90
2023-05-17T17:25:29.572Z,99.90
2023-05-17T17:27:57.637Z,99.90
2023-05-17T17:30:25.856Z,99.90
2023-05-17T17:32:54.124Z,99.90
2023-05-17T17:35:22.397Z,99.90
2023-05-17T17:37:50.425Z,99.90
2023-05-17T17:40:19.951Z,99.90
2023-05-17T17:42:48.316Z,99.90
2023-05-17T17:45:18.816Z,99.90
2023-05-17T17:47:46.832Z,99.90
2023-05-17T17:50:14.873Z,99.90
2023-05-17T17:52:42.860Z,99.90
2023-05-17T17:55:13.173Z,99.90
2023-05-17T17:57:42.707Z,99.90
2023-05-17T18:00:12.847Z,99.90
2023-05-17T18:02:41.067Z,99.90
2023-05-17T18:05:09.964Z,99.90
2023-05-17T18:07:38.707Z,99.90
2023-05-17T18:10:08.353Z,99.90
2023-05-17T18:12:36.529Z,99.90
2023-05-17T18:15:06.675Z,99.90
2023-05-17T18:17:34.805Z,99.90
2023-05-17T18:20:03.145Z,99.90
2023-05-17T18:22:31.184Z,99.90
2023-05-17T18:24:59.401Z,99.90
2023-05-17T18:27:27.629Z,99.90
2023-05-17T18:29:55.671Z,99.90
2023-05-17T18:32:25.363Z,99.90
2023-05-17T18:34:54.899Z,99.90
2023-05-17T18:37:25.022Z,99.90
2023-05-17T18:39:54.064Z,99.90
2023-05-17T18:42:24.864Z,99.90
2023-05-17T18:44:53.291Z,99.90
2023-05-17T18:47:23.318Z,99.90
2023-05-17T18:49:52.982Z,99.90
2023-05-17T18:52:21.023Z,99.90
2023-05-17T18:54:49.325Z,99.90
2023-05-17T18:57:17.717Z,99.90
2023-05-17T18:59:46.221Z,99.90
2023-05-17T19:02:14.417Z,99.90
2023-05-17T19:04:42.524Z,99.90
2023-05-17T19:07:12.403Z,99.90
2023-05-17T19:09:40.565Z,99.90
2023-05-17T19:12:09.199Z,99.90
2023-05-17T19:14:38.347Z,99.90
2023-05-17T19:17:06.857Z,99.90
2023-05-17T19:19:34.901Z,99.90
2023-05-17T19:22:04.652Z,99.90
2023-05-17T19:24:34.327Z,99.90
2023-05-17T19:27:02.290Z,99.90
2023-05-17T19:29:32.567Z,99.90
2023-05-17T19:32:00.557Z,99.90
2023-05-17T19:34:28.576Z,99.90
2023-05-17T19:36:56.637Z,99.90
2023-05-17T19:39:24.904Z,99.90
2023-05-17T19:41:54.274Z,99.90
2023-05-17T19:44:22.773Z,99.90
2023-05-17T19:46:50.911Z,99.90
2023-05-17T19:49:19.050Z,99.90
2023-05-17T19:51:48.133Z,99.90
2023-05-17T19:54:16.484Z,99.90
2023-05-17T19:56:44.826Z,99.90
2023-05-17T19:59:14.466Z,99.90
2023-05-17T20:01:42.517Z,99.90
2023-05-17T20:04:10.974Z,99.90
2023-05-17T20:06:39.200Z,99.90
2023-05-17T20:09:07.580Z,99.90
2023-05-17T20:11:35.929Z,99.90
2023-05-17T20:14:03.941Z,99.90
2023-05-17T20:16:33.421Z,99.90
2023-05-17T20:19:01.817Z,99.90
2023-05-17T20:21:31.329Z,99.90
2023-05-17T20:24:03.706Z,99.90
2023-05-17T20:26:36.310Z,99.90
2023-05-17T20:29:05.649Z,99.90
2023-05-17T20:31:35.379Z,99.90
2023-05-17T20:34:03.590Z,99.90
2023-05-17T20:36:32.310Z,99.90
2023-05-17T20:39:00.690Z,99.90
2023-05-17T20:41:28.724Z,99.90
2023-05-17T20:43:56.735Z,99.90
2023-05-17T20:46:24.848Z,99.90
2023-05-17T20:48:55.908Z,99.90
2023-05-17T20:51:23.890Z,99.90
2023-05-17T20:53:51.927Z,99.90
2023-05-17T20:56:19.979Z,99.90
2023-05-17T20:58:48.834Z,99.90
2023-05-17T21:01:17.082Z,99.90
2023-05-17T21:03:45.414Z,99.90
2023-05-17T21:06:15.100Z,99.90
2023-05-17T21:08:43.285Z,99.90
2023-05-17T21:11:15.124Z,99.90
2023-05-17T21:13:43.093Z,99.90
2023-05-17T21:16:11.152Z,99.90
2023-05-17T21:18:40.225Z,99.90
2023-05-17T21:21:08.827Z,99.90
2023-05-17T21:23:38.381Z,99.90
2023-05-17T21:26:07.642Z,99.90
2023-05-17T21:28:36.151Z,99.90
2023-05-17T21:31:05.060Z,99.90
2023-05-17T21:33:33.772Z,99.90
2023-05-17T21:36:02.228Z,99.90
2023-05-17T21:38:30.576Z,99.90
2023-05-17T21:40:59.939Z,99.90
2023-05-17T21:43:27.912Z,99.90
2023-05-17T21:45:55.966Z,99.90
2023-05-17T21:48:23.956Z,99.90
2023-05-17T21:50:52.040Z,99.90
2023-05-17T21:53:20.086Z,99.90
2023-05-17T21:56:01.519Z,99.90
2023-05-17T21:58:32.818Z,99.90
2023-05-17T22:01:00.980Z,99.90
2023-05-17T22:03:29.069Z,99.90
2023-05-17T22:05:57.167Z,99.90
2023-05-17T22:08:25.194Z,99.90
2023-05-17T22:10:54.462Z,99.90
2023-05-17T22:13:26.489Z,99.90
2023-05-17T22:15:57.224Z,99.90
2023-05-17T22:18:26.701Z,99.90
2023-05-17T22:20:55.078Z,99.90
2023-05-17T22:23:23.123Z,99.90
2023-05-17T22:25:51.186Z,99.90
2023-05-17T22:28:19.315Z,99.90
2023-05-17T22:30:48.562Z,99.90
2023-05-17T22:33:18.028Z,99.90
2023-05-17T22:35:46.530Z,99.90
2023-05-17T22:38:15.894Z,99.90
2023-05-17T22:40:43.872Z,99.90
2023-05-17T22:43:11.948Z,99.90
2023-05-17T22:45:40.206Z,99.90
2023-05-17T22:48:08.526Z,99.90
2023-05-17T22:50:38.716Z,99.90
2023-05-17T22:53:06.866Z,99.90
2023-05-17T22:55:34.912Z,99.90
2023-05-17T22:58:03.003Z,99.90
2023-05-17T23:00:31.318Z,99.90
2023-05-17T23:02:59.358Z,99.90
2023-05-17T23:05:27.574Z,99.90
2023-05-17T23:07:57.069Z,99.90
2023-05-17T23:10:25.187Z,99.90
2023-05-17T23:12:57.976Z,99.90
2023-05-17T23:15:26.730Z,99.90
2023-05-17T23:17:54.805Z,99.90
2023-05-17T23:20:24.580Z,99.90
2023-05-17T23:22:55.861Z,99.90
2023-05-17T23:25:23.855Z,99.90
2023-05-17T23:27:52.064Z,99.90
2023-05-17T23:30:20.770Z,99.90
2023-05-17T23:32:51.133Z,99.90
2023-05-17T23:35:19.320Z,99.90
2023-05-17T23:37:47.334Z,99.90
2023-05-17T23:40:17.317Z,99.90
2023-05-17T23:42:45.351Z,99.90
2023-05-17T23:45:13.419Z,99.90
2023-05-17T23:47:41.588Z,99.90
2023-05-17T23:50:10.725Z,99.90
2023-05-17T23:52:39.474Z,99.90
2023-05-17T23:55:08.242Z,99.90
2023-05-17T23:57:38.737Z,99.90
